Kamikita Maru — JD4176 — position and weather

sailwx.info

Track history (hours):
 
Tides and Currents Weather Stations Pressure Air Temp Water Temp Dewpoint Dewpoint Depression Visibility Wind Speed Wind Dir Waves Ship Positions

Kamikita Maru

Last reported at 2017-Nov-22 20:31 UTC. Time now 2017-Nov-22 20:35 UTC.
Position N 35°25' E 139°48'.

Length 170 m; draft 6.7 m.

Type: Cargo ship. MMSI: 431009595.

Date/timePositionNaut miles runAvg speedWind from/ knotsBaromVisibWave heightAir tempDewpointWater temp
2017-Nov-22 20:31N 35°25' E 139°48'713.0
2017-Nov-22 20:00N 35°20' E 139°44'611.3
2017-Nov-22 19:30N 35°14' E 139°47'  
2017-Nov-18 13:21N 34°54' E 140°05'1018.9
2017-Nov-18 12:49N 34°51' E 139°53'618.5
2017-Nov-18 12:30N 34°52' E 139°46'918.9
2017-Nov-18 12:00N 35°01' E 139°43'918.8
2017-Nov-18 11:30N 35°10' E 139°46'713.6
2017-Nov-18 11:00N 35°17' E 139°45'612.7
2017-Nov-18 10:30N 35°23' E 139°42'815.5
2017-Nov-18 10:00N 35°28' E 139°49'612.9
2017-Nov-18 09:31N 35°35' E 139°48'4 0.8
2017-Nov-18 04:33N 35°38' E 139°46'0 2.5
2017-Nov-18 04:29N 35°38' E 139°46'5 9.8
2017-Nov-18 04:01N 35°34' E 139°49'713.3
2017-Nov-18 03:31N 35°27' E 139°50'714.5
2017-Nov-18 03:00N 35°21' E 139°45'611.8
2017-Nov-18 02:30N 35°16' E 139°47'713.8
2017-Nov-18 02:00N 35°09' E 139°47'918.0
2017-Nov-18 01:30N 35°01' E 139°41'1019.0
2017-Nov-18 01:00N 34°56' E 139°31'23217.4
2017-Nov-17 11:39N 33°59' E 134°58'320.4
2017-Nov-17 11:29N 34°02' E 134°58'1020.0
2017-Nov-17 11:00N 34°12' E 134°58'1019.6
2017-Nov-17 10:30N 34°21' E 135°00'1019.5
2017-Nov-17 10:00N 34°28' E 135°09'1019.1
2017-Nov-17 09:30N 34°34' E 135°18'612.2
2017-Nov-17 09:00N 34°37' E 135°25'0 0.2
2017-Nov-17 08:30N 34°37' E 135°25'0 0.0
2017-Nov-17 08:00N 34°37' E 135°25'0 0.0
2017-Nov-17 07:27N 34°37' E 135°25'0 0.0
2017-Nov-17 00:25N 34°37' E 135°25'1 3.2
2017-Nov-17 00:00N 34°36' E 135°23'713.4
2017-Nov-16 23:30N 34°33' E 135°17'714.7
2017-Nov-16 23:00N 34°28' E 135°10'815.2
2017-Nov-16 22:30N 34°22' E 135°04'815.7
2017-Nov-16 22:00N 34°15' E 134°59'815.6
2017-Nov-16 21:30N 34°07' E 134°59'815.4
2017-Nov-16 21:00N 33°60' E 134°58'22514.9
2017-Nov-16 05:54N 34°55' E 139°23'718.4
2017-Nov-16 05:30N 34°59' E 139°30'918.4
2017-Nov-16 05:00N 35°04' E 139°39'917.1
2017-Nov-16 04:30N 35°11' E 139°46'611.5
2017-Nov-16 04:00N 35°17' E 139°45'612.1
2017-Nov-16 03:30N 35°22' E 139°42'816.3
2017-Nov-16 03:00N 35°28' E 139°49'612.7
2017-Nov-16 02:30N 35°34' E 139°48'4 4.3
2017-Nov-16 01:37N 35°38' E 139°46'0 0.0
2017-Nov-15 21:50N 35°38' E 139°46'0 1.0
2017-Nov-15 21:27N 35°37' E 139°46'510.6
2017-Nov-15 21:01N 35°34' E 139°50'713.6
2017-Nov-15 20:31N 35°27' E 139°49'713.4
2017-Nov-15 20:00N 35°21' E 139°45'611.3
2017-Nov-15 19:31N 35°16' E 139°47'714.6
2017-Nov-15 19:00N 35°09' E 139°47'1019.8
2017-Nov-15 18:30N 34°59' E 139°43'917.5
2017-Nov-15 18:00N 34°51' E 139°47'1019.2
2017-Nov-15 17:28N 34°52' E 139°60'  
Track history (hours):
 
Tides and Currents Weather Stations Pressure Air Temp Water Temp Dewpoint Dewpoint Depression Visibility Wind Speed Wind Dir Waves Ship Positions

Kamikita Maru

Last reported at 2017-Nov-22 20:31 UTC. Time now 2017-Nov-22 20:35 UTC.
Position N 35°25' E 139°48'.

Length 170 m; draft 6.7 m.

Type: Cargo ship. MMSI: 431009595.

Date/timePositionNaut miles runAvg speedWind from/ knotsBaromVisibWave heightAir tempDewpointWater temp
2017-Nov-22 20:31N 35°25' E 139°48'713.0
2017-Nov-22 20:00N 35°20' E 139°44'611.3
2017-Nov-22 19:30N 35°14' E 139°47'  
2017-Nov-18 13:21N 34°54' E 140°05'1018.9
2017-Nov-18 12:49N 34°51' E 139°53'618.5
2017-Nov-18 12:30N 34°52' E 139°46'918.9
2017-Nov-18 12:00N 35°01' E 139°43'918.8
2017-Nov-18 11:30N 35°10' E 139°46'713.6
2017-Nov-18 11:00N 35°17' E 139°45'612.7
2017-Nov-18 10:30N 35°23' E 139°42'815.5
2017-Nov-18 10:00N 35°28' E 139°49'612.9
2017-Nov-18 09:31N 35°35' E 139°48'4 0.8
2017-Nov-18 04:33N 35°38' E 139°46'0 2.5
2017-Nov-18 04:29N 35°38' E 139°46'5 9.8
2017-Nov-18 04:01N 35°34' E 139°49'713.3
2017-Nov-18 03:31N 35°27' E 139°50'714.5
2017-Nov-18 03:00N 35°21' E 139°45'611.8
2017-Nov-18 02:30N 35°16' E 139°47'713.8
2017-Nov-18 02:00N 35°09' E 139°47'918.0
2017-Nov-18 01:30N 35°01' E 139°41'1019.0
2017-Nov-18 01:00N 34°56' E 139°31'23217.4
2017-Nov-17 11:39N 33°59' E 134°58'320.4
2017-Nov-17 11:29N 34°02' E 134°58'1020.0
2017-Nov-17 11:00N 34°12' E 134°58'1019.6
2017-Nov-17 10:30N 34°21' E 135°00'1019.5
2017-Nov-17 10:00N 34°28' E 135°09'1019.1
2017-Nov-17 09:30N 34°34' E 135°18'612.2
2017-Nov-17 09:00N 34°37' E 135°25'0 0.2
2017-Nov-17 08:30N 34°37' E 135°25'0 0.0
2017-Nov-17 08:00N 34°37' E 135°25'0 0.0
2017-Nov-17 07:27N 34°37' E 135°25'0 0.0
2017-Nov-17 00:25N 34°37' E 135°25'1 3.2
2017-Nov-17 00:00N 34°36' E 135°23'713.4
2017-Nov-16 23:30N 34°33' E 135°17'714.7
2017-Nov-16 23:00N 34°28' E 135°10'815.2
2017-Nov-16 22:30N 34°22' E 135°04'815.7
2017-Nov-16 22:00N 34°15' E 134°59'815.6
2017-Nov-16 21:30N 34°07' E 134°59'815.4
2017-Nov-16 21:00N 33°60' E 134°58'22514.9
2017-Nov-16 05:54N 34°55' E 139°23'718.4
2017-Nov-16 05:30N 34°59' E 139°30'918.4
2017-Nov-16 05:00N 35°04' E 139°39'917.1
2017-Nov-16 04:30N 35°11' E 139°46'611.5
2017-Nov-16 04:00N 35°17' E 139°45'612.1
2017-Nov-16 03:30N 35°22' E 139°42'816.3
2017-Nov-16 03:00N 35°28' E 139°49'612.7
2017-Nov-16 02:30N 35°34' E 139°48'4 4.3
2017-Nov-16 01:37N 35°38' E 139°46'0 0.0
2017-Nov-15 21:50N 35°38' E 139°46'0 1.0
2017-Nov-15 21:27N 35°37' E 139°46'510.6
2017-Nov-15 21:01N 35°34' E 139°50'713.6
2017-Nov-15 20:31N 35°27' E 139°49'713.4
2017-Nov-15 20:00N 35°21' E 139°45'611.3
2017-Nov-15 19:31N 35°16' E 139°47'714.6
2017-Nov-15 19:00N 35°09' E 139°47'1019.8
2017-Nov-15 18:30N 34°59' E 139°43'917.5
2017-Nov-15 18:00N 34°51' E 139°47'1019.2
2017-Nov-15 17:28N 34°52' E 139°60'  

Dump ship's entire track history